Keisuke Inoue

Chief Scout - Kawasaki Frontale
4 Jun 2028
Sunday
Process

Personality

Adaptability (15) Ambition (12) Controversy (4) Loyalty (14) Pressure (3) Professionalism (1) Sportsmanship (18) Temperament (2)

Profile

Coaching Style Democratic
License Continental A
Determination 6
Man Management 6
Motivating 11
Discipline 7
Job Satisfaction
100%
Fatigue
0%
Role Chief Scout
Wage 42.4K p/w
Contract 14.03.2029

Performance

Behaviour Good
Training Effectiveness
54%
Player Development
60%
Injury Prevention
50%
Tactical Implementation
60%

Recent Events

Attended a recruitment meeting now
Recommended a transfer target now
Recommended a transfer target now
Recommended a transfer target now
Assessed a player now
Assessed a player now
Assessed a player now
Observed a match now

Currently Monitoring

224
Player Club Status Ability Confidence Watched Last Observed Latest Vote
Chris Rigg Sunderland Active 125 / 144 40% 5 03.06.2028 -
Nathan De Cat SC Freiburg Active 146 / 144 40% 2 03.06.2028 -
Mattia Puzone Siracusa Active 114 / 110 40% 3 02.06.2028 -
David Damboama El-Kanemi Warriors Active 94 / 90 40% 2 02.06.2028 -
Finn Jeltsch VfB Stuttgart Active 145 / 150 40% 6 01.06.2028 -
Alani Maritimo Active 125 / 117 40% 3 01.06.2028 -
Simone Suppa Virtus Verona Active 86 / 96 40% 2 31.05.2028 -
Andrey Ivlev Nizhniy Novgorod Active 115 / 111 40% 1 31.05.2028 -
Jan Bürger Northampton Town Active 136 / 127 40% 9 28.05.2028 -
Musa Danjuma Umraniyespor Active 101 / 107 40% 1 28.05.2028 -
Honest Ahanor Atalanta Active 128 / 143 40% 4 27.05.2028 -
Ayden Heaven Portsmouth Active 158 / 154 40% 4 23.05.2028 -
Rhys Chadwick AFC Wimbledon Active 97 / 110 40% 2 23.05.2028 -
Kiani Inge Groningen Active 104 / 123 40% 4 22.05.2028 -
Riquelme Thompson-Jones Accrington Stanley Active 107 / 112 40% 4 22.05.2028 -
Andrija Bulatović Chamois Niortais Active 112 / 138 40% 1 21.05.2028 -
Josh Nichols Oldham Athletic Active 120 / 130 40% 3 20.05.2028 -
Jamie Wähling Hibernians Active 91 / 95 40% 1 20.05.2028 -
Salvador Blopá Sporting CP Active 122 / 131 40% 7 19.05.2028 -
Christos Mouzakitis Hull City Active 134 / 139 40% 5 19.05.2028 -
Giovanni Leoni Lincoln City Active 141 / 136 40% 2 17.05.2028 -
Lamine Bèye Portimonense Active 121 / 112 40% 2 17.05.2028 -
Daniel Banjaqui Benfica Active 126 / 121 40% 3 15.05.2028 -
Konta Ismaily Active 98 / 115 40% 2 15.05.2028 -
Kamaldeen Atiemo Wa All Stars Active 90 / 118 40% 3 14.05.2028 -
Makar Vysochenko Spartak Moscow Active 74 / 91 40% 3 14.05.2028 -
Lucas Høgsberg RC Strasbourg Active 127 / 153 40% 3 11.05.2028 -
Bongani Jali Free State Stars Active 93 / 108 40% 6 09.05.2028 -
Jorge Salinas Racing Santander Active 122 / 136 40% 1 07.05.2028 -
Josh King Newcastle United Active 158 / 155 40% 4 06.05.2028 -
Vojislav Jokić OFK Beograd Active 99 / 112 40% 1 06.05.2028 -
Cheveyo Tsawa Club Brugge Active 130 / 123 40% 1 01.05.2028 -
Jorge Moreno Athletic Bilbao Active 113 / 123 40% 1 30.04.2028 -
Federico Matarán Giana Erminio Active 94 / 116 40% 2 29.04.2028 -
Tylel Tati Chamois Niortais Active 130 / 132 40% 1 28.04.2028 -
Adnan Nainggolan KV Oostende Active 89 / 115 40% 1 27.04.2028 -
Dmitry Pestryakov Krasnodar Active 110 / 132 40% 1 26.04.2028 -
Kwesi Sorotu Badori Berekum Chelsea Active 99 / 99 40% 1 25.04.2028 -
Nicolò Moranduzzo Renate Active 85 / 107 40% 1 24.04.2028 -
Itumeleng Jali Spezia Active 128 / 115 40% 1 24.04.2028 -
Miguel Figueiredo Benfica Active 119 / 127 40% 5 23.04.2028 -
Bernardo Lima Porto Active 95 / 110 40% 2 21.04.2028 -
Jorthy Mokio ADO Den Haag Active 136 / 145 40% 2 17.04.2028 -
Bence Szakos Aris Active 97 / 93 40% 1 16.04.2028 -
Martim Cunha Porto Active 91 / 107 40% 5 13.04.2028 -
Thulani Manyama SuperSport United Active 95 / 116 40% 1 07.04.2028 -
Kim Tae Hyeon Kashima Antlers Active 133 / 122 55% 1 14.02.2028 -
Siyabonga Mabena Bidvest Wits Active 104 / 137 40% 4 25.01.2028 -
Sindre Walle Egeli Udinese Active 131 / 132 40% 2 17.01.2028 -
Shusuke Ota Shonan Bellmare Active 102 / 115 55% 1 17.01.2028 -
Dean David Yokohama F. Marinos Active 119 / 120 55% 1 08.01.2028 -
Rafael Moreno Atletico Venezuela Active 120 / 120 40% 3 05.01.2028 -
Mao Hosoya Santos Negotiating 134 / 135 67% 1 05.01.2028 Approve
Kosuke Shirai Shonan Bellmare Active 120 / 124 55% 1 05.01.2028 -
Matias Siltanen Malmo FF Active 122 / 132 40% 1 05.01.2028 -
Eli Junior Kroupi Bournemouth Active 143 / 152 40% 2 04.01.2028 -
Matías Arias Vélez Active 116 / 116 40% 2 04.01.2028 -
Valentino Acuña Newell's Old Boys Active 120 / 122 40% 2 02.01.2028 -
Yuri Leles Bragantino Active 105 / 115 40% 1 02.01.2028 -
Alex Verón Vélez Active 112 / 119 40% 2 01.01.2028 -
Luca Meirelles Kudrivka Active 113 / 130 40% 1 29.12.2027 -
Nicolás Barros Schelotto Gimnasia La Plata Active 117 / 124 40% 2 28.12.2027 -
Jayden Danns Bradford City Active 131 / 130 40% 1 28.12.2027 -
Gabriel Lopes San Marcos de Arica Active 106 / 96 40% 4 25.12.2027 -
Victor Hernandez Santa Fe Active 111 / 130 40% 2 24.12.2027 -
Emmanuel Ndubueze Shooting Stars Active 92 / 92 40% 4 24.12.2027 -
Giovanni Baroni Talleres Active 109 / 124 40% 2 21.12.2027 -
Babis Kostoulas Oxford United Active 145 / 146 40% 1 21.12.2027 -
Luighi Palmeiras Active 100 / 114 40% 2 20.12.2027 -
Maren Kefas Plateau United Active 90 / 88 40% 1 20.12.2027 -
Christ Wawa Gefle Active 118 / 97 40% 3 19.12.2027 -
Joseph Abah Remo Stars Active 91 / 88 40% 2 19.12.2027 -
Idris Ajiya Nasarawa United Active 71 / 81 40% 2 18.12.2027 -
Joel Ezra Enyimba Active 82 / 97 40% 3 18.12.2027 -
Flávio Gonçalves Sporting CP Active 138 / 141 40% 3 16.12.2027 -
Rémi Himbert AC Ajaccio Active 125 / 116 40% 1 15.12.2027 -
Jeremías Merlo Gimnasia La Plata Active 129 / 130 40% 6 13.12.2027 -
Luca Williams-Barnett Walsall Active 105 / 140 40% 3 12.12.2027 -
Bautista Carboni Defensores Unidos Active 107 / 113 40% 1 12.12.2027 -
Luka Andrade Montevideo City Torque Active 99 / 112 40% 3 11.12.2027 -
Kaique Kenji Fortaleza Active 115 / 128 40% 2 11.12.2027 -
Sebastián Ramírez Aguilas Doradas Active 106 / 110 40% 2 10.12.2027 -
Mateo Peralta Danubio Active 114 / 116 40% 1 04.12.2027 -
Mateo Silvetti Seattle Sounders Active 120 / 137 40% 1 03.12.2027 -
Musa Malik Ikorodu City Active 104 / 105 40% 2 02.12.2027 -
David Eke Enyimba Active 98 / 85 40% 1 30.11.2027 -
Agustín De la Cuesta Racing Active 112 / 115 40% 1 24.11.2027 -
Francisco Triver River Plate Active 99 / 93 40% 2 20.11.2027 -
Mfundo Vilakazi Free State Stars Active 108 / 128 40% 1 13.11.2027 -
Lucas Camejo River Plate Active 82 / 94 40% 2 12.11.2027 -
Ruben Ramos LA Galaxy Active 86 / 114 40% 1 12.11.2027 -
Tomás Parmo Independiente Active 110 / 133 40% 1 11.11.2027 -
Bryan Caicedo Leones Active 108 / 108 40% 1 10.11.2027 -
Juan Rodríguez Cerro Largo Active 106 / 98 40% 1 07.11.2027 -
Haine Eames Brisbane Roar Active 108 / 116 40% 1 15.10.2027 -
Mustapha Umar Kano Pillars Active 93 / 86 40% 1 10.10.2027 -
Abubakar Garba Nasarawa United Active 104 / 92 40% 2 09.10.2027 -
Wisdom Udom Bendel Insurance Active 90 / 96 40% 1 08.10.2027 -
Vinícius Lira São Paulo Active 110 / 119 40% 1 10.09.2027 -
Santiago Murillo Alianza Petrolera Active 124 / 141 40% 1 10.09.2027 -
Azizbek To'lqinbekov Bunyodkor Active 108 / 106 40% 1 07.09.2027 -
Felipe Faúndez O'Higgins Active 101 / 108 40% 1 06.09.2027 -
Kazunari Kita Real Sociedad Active 117 / 105 40% 5 21.07.2027 -
Josh Davidson Milton Keynes Dons Active 103 / 96 40% 2 21.07.2027 -
Zane Albarus Shrewsbury Town Active 101 / 93 40% 4 20.07.2027 -
Germán Barbas Burgos Active 110 / 108 40% 5 20.07.2027 -
Caleb Yirenkyi Coventry City Active 152 / 143 40% 9 18.07.2027 -
Marco Oroná Antofagasta Active 95 / 103 40% 1 16.07.2027 -
Simone Kosijer Triestina Active 113 / 110 40% 1 16.07.2027 -
Gady Beyuku Blackburn Rovers Active 110 / 123 40% 2 14.07.2027 -
Daniel Dennis Ikorodu City Active 100 / 106 40% 1 13.07.2027 -
Mbekezeli Mbokazi Chicago Fire Active 111 / 133 40% 1 13.07.2027 -
Charlie Gray Fleetwood Town Active 102 / 104 40% 4 02.07.2027 -
Godwin Oham Warri Wolves Active 104 / 97 40% 1 01.07.2027 -
Sascha Britschgi AC Milan Active 116 / 135 40% 6 30.06.2027 -
Tiago Freitas Benfica Active 107 / 122 40% 8 29.06.2027 -
George Hoddle Cambridge United Active 69 / 91 40% 3 27.06.2027 -
Francis Gomez Cardiff City Active 96 / 117 40% 3 25.06.2027 -
Ivan Giraldo Valencia Active 134 / 124 40% 10 22.06.2027 -
Ezra Mayers West Ham United Active 115 / 125 40% 2 17.06.2027 -
Matvey Kislyak CSKA Moscow Active 127 / 134 40% 3 16.06.2027 -
Jenson Jones Walsall Active 105 / 98 40% 3 10.06.2027 -
Milan Roganović Racing Genk Active 104 / 121 40% 1 09.06.2027 -
Riley Owen Stevenage Active 110 / 109 40% 2 02.06.2027 -
Pedro Vian Seewald Dolomiti Bellunesi Active 89 / 98 40% 1 02.06.2027 -
Leandro Martins Benfica Active 111 / 99 40% 4 29.05.2027 -
Issa Yusuf Shooting Stars Active 89 / 83 40% 1 28.05.2027 -
Gonçalo Oliveira Benfica Active 124 / 110 40% 2 20.05.2027 -
Moncef Zekri Sporting CP Active 110 / 107 40% 1 20.05.2027 -
Rhys Walters Port Vale Active 93 / 113 40% 1 19.05.2027 -
Wessel Kuhn PSV Active 105 / 113 40% 1 06.05.2027 -
Edwin Asamoah Berekum Chelsea Active 66 / 88 40% 2 05.05.2027 -
Alexandro Maidana Eibar Active 117 / 108 40% 2 04.05.2027 -
Tommaso Cecotti Carpi Active 109 / 106 40% 2 30.04.2027 -
Bade Aluko Leicester City Active 94 / 120 40% 1 26.03.2027 -
Vanja Dragojević Partizan Active 96 / 125 40% 1 21.03.2027 -
James Dornelly Peterborough United Active 121 / 108 40% 2 20.03.2027 -
Axel Frugone Athletic Bilbao Active 132 / 129 40% 1 19.03.2027 -
Pietro Reggiori Pro Patria Active 84 / 97 40% 1 16.03.2027 -
Andrea Bertoncini Triestina Active 88 / 96 40% 1 14.03.2027 -
Samuele Diodato Lumezzane Active 111 / 107 40% 1 13.03.2027 -
David Ozoh Derby County Active 114 / 118 40% 2 12.03.2027 -
Olivier Leroux Mouscron Active 106 / 97 40% 2 05.03.2027 -
Lucas Mbamba Westerlo Active 94 / 83 40% 1 03.03.2027 -
Afriyie Sulemana WAFA Active 89 / 100 40% 1 24.02.2027 -
Ethan Galbraith Swansea City Active 132 / 139 40% 1 08.02.2027 -
Leo Ceara Kashima Antlers Active 145 / 132 48% 1 18.01.2027 Monitor
Sampson Dweh Mallorca Negotiating 133 / 134 66% 1 05.01.2027 Approve
Stanislav Agkatsev Brentford Negotiating 132 / 133 66% 1 05.01.2027 Approve
Adam Hrdina Zbrojovka Brno Active 110 / 118 40% 2 03.01.2027 -
Lander Astiazarán Real Sociedad Active 123 / 123 40% 1 02.01.2027 -
George Wickens Lincoln City Active 105 / 113 40% 1 02.01.2027 -
Robin Roefs Sunderland Active 139 / 145 40% 3 01.01.2027 -
Lukas Jensen Millwall Active 134 / 123 40% 1 01.01.2027 -
Enock Agyei Northampton Town Active 103 / 113 40% 2 30.12.2026 -
Domen Gril Piast Active 123 / 99 40% 1 30.12.2026 -
Jan Bačkovský Dukla Prague Active 103 / 110 40% 3 29.12.2026 -
Elia Caprile Cagliari Active 145 / 155 40% 1 29.12.2026 -
Zack Nelson Ternana Active 113 / 96 40% 1 27.12.2026 -
Bazoumana Touré Newcastle United Active 120 / 139 40% 1 27.12.2026 -
Arthur Beroe Active 129 / 118 40% 4 25.12.2026 -
Nathan Bishop AFC Wimbledon Active 95 / 113 40% 1 25.12.2026 -
Martin Trnovský Podbrezova Active 97 / 104 40% 1 22.12.2026 -
Murphy Cooper Plymouth Argyle Active 122 / 101 40% 1 19.12.2026 -
Romelle Donovan Brentford Active 129 / 124 40% 2 18.12.2026 -
Filip Marschall Stevenage Active 96 / 105 40% 2 18.12.2026 -
Joel Orlando Almagro Active 105 / 111 40% 1 18.12.2026 -
Manuel Roffo Hajduk Split Active 136 / 126 40% 3 16.12.2026 -
Strahinja Manojlović Radnicki Nis Active 98 / 111 40% 1 16.12.2026 -
Zach Hemming Chesterfield Active 105 / 102 40% 2 14.12.2026 -
Simphiwe Selepe Orlando Pirates Active 94 / 127 40% 1 12.12.2026 -
Patrick Schulte Columbus Crew Active 111 / 119 40% 2 10.12.2026 -
Othmane Maamma Watford Active 137 / 117 40% 1 09.12.2026 -
Jacques Ekomié Wrexham Active 114 / 126 40% 1 09.12.2026 -
Josh Tymon Swansea City Active 104 / 126 40% 1 09.12.2026 -
Andre Brooks Sheffield United Active 129 / 139 40% 1 08.12.2026 -
Alfie Doughty Millwall Active 131 / 131 40% 1 08.12.2026 -
Nicolas Madsen Queens Park Rangers Active 142 / 132 40% 1 06.12.2026 -
Martin Gjorgievski Zbrojovka Brno Active 102 / 109 40% 1 02.12.2026 -
João Valido Chaves Active 116 / 99 40% 2 29.11.2026 -
James Trafford Leeds United Active 129 / 137 40% 1 29.11.2026 -
Vincent Müller Aalborg Active 96 / 119 40% 2 28.11.2026 -
Fran Vieites Walsall Active 138 / 113 40% 2 28.11.2026 -
Grégoire Coudert Burnley Active 126 / 138 40% 1 27.11.2026 -
Anton Zhylkin Karpaty Active 91 / 110 40% 1 24.11.2026 -
Mohammed Galadima Hapoel Kfar Saba Active 105 / 103 40% 1 23.11.2026 -
Lucas Lund Viborg Active 134 / 118 40% 2 21.11.2026 -
Josh Keeley Luton Town Active 105 / 115 40% 1 21.11.2026 -
Richard Ludha MFK Skalica Active 128 / 113 40% 2 19.11.2026 -
Tomoki Hayakawa Kashima Antlers Active 144 / 145 40% 1 17.11.2026 -
Franko Kolić Istra 1961 Active 108 / 103 40% 2 16.11.2026 -
Mattias Lamhauge Stromsgodset Active 101 / 110 40% 1 16.11.2026 -
Leopold Wahlstedt Rosenborg Active 100 / 110 40% 1 14.11.2026 -
Andrej Nemec FK Senica Active 89 / 83 40% 1 12.11.2026 -
Keisuke Osako Sanfrecce Hiroshima Active 136 / 140 40% 2 07.11.2026 -
Andrei Vlad Petrolul Active 99 / 109 40% 2 06.11.2026 -
Marko Galić Cibalia Active 86 / 96 40% 2 03.11.2026 -
Maicon Levski Active 121 / 132 40% 1 03.11.2026 -
Gedson Fernandes Spartak Moscow Active 116 / 147 40% 1 03.11.2026 -
Sławomir Abramowicz Jagiellonia Active 101 / 132 40% 1 31.10.2026 -
CJ dos Santos San Diego Football Club Active 110 / 105 40% 1 31.10.2026 -
Roman Celentano FC Cincinnati Active 131 / 124 40% 2 30.10.2026 -
Davor Matijaš HNK Gorica Active 84 / 116 40% 1 30.10.2026 -
Jakub Ojrzyński Orebro Active 99 / 96 40% 1 28.10.2026 -
Samuel Brolin Kalmar FF Active 100 / 113 40% 2 25.10.2026 -
Ryota Izumori Sagan Tosu Active 116 / 106 40% 2 24.10.2026 -
Oliver Petersen Odd Active 134 / 120 40% 1 22.10.2026 -
Ikenna Benjamin Bayelsa United Active 90 / 72 40% 1 22.10.2026 -
Gorka Gorosabel Real Sociedad Active 111 / 125 40% 1 22.10.2026 -
Marcus Bundgaard SonderjyskE Active 121 / 112 40% 1 19.10.2026 -
Mads Hedenstad AGF Active 139 / 109 40% 1 18.10.2026 -
Brian Bwire Polokwane City Active 81 / 89 40% 1 15.10.2026 -
Tim Rönning Halmstad Active 91 / 109 40% 1 15.10.2026 -
Diego Romero Universitario Active 127 / 123 40% 1 14.10.2026 -
Matevž Vidovšek Olimpija Ljubljana Active 110 / 112 40% 1 13.10.2026 -
Niklas Hedl Rapid Wien Active 120 / 115 40% 1 10.10.2026 -
Ştefan Târnovanu CFR Cluj Active 131 / 108 40% 1 10.10.2026 -
Álex Centelles Levski Active 137 / 120 40% 1 09.10.2026 -
Femi Seriki Sheffield United Active 125 / 117 40% 1 08.10.2026 -
Kazuki Fujita Avispa Fukuoka Active 113 / 116 40% 1 06.10.2026 -
Cailen Hill Hapoel Raanana Active 87 / 74 40% 1 05.10.2026 -
Mohamed Camara Asante Kotoko Active 110 / 99 40% 1 05.10.2026 -
João Klauss LA Galaxy Active 139 / 132 40% 1 05.08.2026 -
Cheikh Sabaly Vancouver Whitecaps Active 119 / 115 40% 1 05.08.2026 -